createdAt,value
2022-10-13T00:00:57.119Z,13.57
2022-10-13T00:03:23.689Z,13.62
2022-10-13T00:05:52.175Z,13.62
2022-10-13T00:08:21.603Z,13.61
2022-10-13T00:10:50.884Z,13.32
2022-10-13T00:13:18.549Z,13.59
2022-10-13T00:15:47.400Z,13.43
2022-10-13T00:18:14.923Z,13.54
2022-10-13T00:20:49.562Z,13.41
2022-10-13T00:23:17.421Z,13.54
2022-10-13T00:25:46.608Z,13.45
2022-10-13T00:28:14.345Z,13.43
2022-10-13T00:30:41.094Z,13.37
2022-10-13T00:33:07.850Z,13.53
2022-10-13T00:35:39.699Z,13.52
2022-10-13T00:38:06.177Z,13.31
2022-10-13T00:40:32.683Z,13.32
2022-10-13T00:42:59.248Z,13.45
2022-10-13T00:45:29.844Z,13.33
2022-10-13T00:48:00.413Z,13.21
2022-10-13T00:50:34.254Z,13.35
2022-10-13T00:53:01.630Z,13.39
2022-10-13T00:55:34.154Z,13.45
2022-10-13T00:58:05.663Z,13.38
2022-10-13T01:00:34.606Z,13.44
2022-10-13T01:03:02.635Z,13.37
2022-10-13T01:05:30.274Z,13.21
2022-10-13T01:07:57.310Z,13.25
2022-10-13T01:10:55.189Z,13.30
2022-10-13T01:13:48.855Z,13.35
2022-10-13T01:16:22.003Z,13.31
2022-10-13T01:18:57.562Z,13.14
2022-10-13T01:21:31.094Z,13.11
2022-10-13T01:24:13.228Z,13.22
2022-10-13T01:26:51.471Z,13.42
2022-10-13T01:29:17.916Z,13.43
2022-10-13T01:32:20.383Z,13.41
2022-10-13T01:35:05.695Z,13.36
2022-10-13T01:37:54.361Z,13.24
2022-10-13T01:40:23.843Z,13.41
2022-10-13T01:43:12.974Z,13.39
2022-10-13T01:46:01.891Z,13.05
2022-10-13T01:48:29.464Z,13.22
2022-10-13T01:50:58.804Z,13.28
2022-10-13T01:53:26.272Z,13.33
2022-10-13T01:55:55.889Z,13.34
2022-10-13T01:58:25.035Z,13.27
2022-10-13T02:01:20.822Z,13.32
2022-10-13T02:04:02.414Z,13.18
2022-10-13T02:06:36.334Z,13.29
2022-10-13T02:09:21.123Z,13.27
2022-10-13T02:11:54.310Z,13.06
2022-10-13T02:14:27.758Z,13.25
2022-10-13T02:16:56.007Z,13.23
2022-10-13T02:19:23.781Z,13.22
2022-10-13T02:21:53.266Z,12.99
2022-10-13T02:24:20.133Z,13.12
2022-10-13T02:26:47.503Z,13.15
2022-10-13T02:29:16.535Z,13.21
2022-10-13T02:31:44.936Z,13.20
2022-10-13T02:34:12.350Z,13.19
2022-10-13T02:36:39.612Z,13.19
2022-10-13T02:39:10.678Z,13.20
2022-10-13T02:41:38.040Z,13.18
2022-10-13T02:44:05.665Z,13.14
2022-10-13T02:46:32.247Z,13.16
2022-10-13T02:48:58.753Z,13.05
2022-10-13T02:51:25.420Z,13.15
2022-10-13T02:53:51.971Z,13.09
2022-10-13T02:56:19.431Z,13.07
2022-10-13T02:58:45.947Z,12.95
2022-10-13T03:01:15.902Z,13.08
2022-10-13T03:03:42.791Z,13.03
2022-10-13T03:06:09.574Z,13.07
2022-10-13T03:08:36.633Z,13.06
2022-10-13T03:11:03.282Z,13.02
2022-10-13T03:13:29.803Z,12.95
2022-10-13T03:15:56.387Z,12.91
2022-10-13T03:18:23.138Z,12.85
2022-10-13T03:21:01.309Z,12.85
2022-10-13T03:23:28.102Z,12.94
2022-10-13T03:25:55.200Z,12.94
2022-10-13T03:28:22.709Z,12.63
2022-10-13T03:30:49.281Z,12.79
2022-10-13T03:33:34.662Z,12.73
2022-10-13T03:36:05.599Z,12.91
2022-10-13T03:38:34.406Z,12.88
2022-10-13T03:41:05.762Z,12.77
2022-10-13T03:43:32.231Z,12.80
2022-10-13T03:46:00.678Z,12.66
2022-10-13T03:48:27.944Z,12.73
2022-10-13T03:50:55.052Z,12.67
2022-10-13T03:53:22.306Z,12.63
2022-10-13T03:55:54.549Z,12.73
2022-10-13T03:58:23.577Z,12.73
2022-10-13T04:00:51.423Z,12.69
2022-10-13T04:03:18.016Z,12.53
2022-10-13T04:05:44.859Z,12.68
2022-10-13T04:08:12.436Z,12.49
2022-10-13T04:10:39.886Z,12.66
2022-10-13T04:13:06.991Z,12.66
2022-10-13T04:15:38.001Z,12.34
2022-10-13T04:18:06.290Z,12.37
2022-10-13T04:20:37.189Z,12.62
2022-10-13T04:23:03.781Z,12.53
2022-10-13T04:25:30.355Z,12.46
2022-10-13T04:27:56.861Z,12.42
2022-10-13T04:30:23.391Z,12.28
2022-10-13T04:32:50.000Z,12.53
2022-10-13T04:35:16.632Z,12.46
2022-10-13T04:37:45.190Z,12.50
2022-10-13T04:40:12.106Z,12.39
2022-10-13T04:42:39.134Z,12.38
2022-10-13T04:45:07.001Z,12.47
2022-10-13T04:47:37.101Z,12.51
2022-10-13T04:50:04.382Z,12.50
2022-10-13T04:52:30.894Z,12.33
2022-10-13T04:54:57.501Z,12.38
2022-10-13T04:57:24.017Z,12.38
2022-10-13T04:59:50.630Z,12.37
2022-10-13T05:02:17.537Z,12.41
2022-10-13T05:04:44.616Z,12.19
2022-10-13T05:07:18.052Z,12.38
2022-10-13T05:09:45.368Z,12.23
2022-10-13T05:12:11.997Z,12.22
2022-10-13T05:14:38.470Z,12.41
2022-10-13T05:17:05.049Z,12.26
2022-10-13T05:19:32.869Z,12.46
2022-10-13T05:21:59.501Z,12.33
2022-10-13T05:24:36.594Z,12.43
2022-10-13T05:27:09.210Z,12.48
2022-10-13T05:29:36.690Z,12.40
2022-10-13T05:32:03.786Z,12.47
2022-10-13T05:34:30.745Z,12.20
2022-10-13T05:36:57.377Z,12.48
2022-10-13T05:39:23.994Z,12.22
2022-10-13T05:41:50.716Z,12.39
2022-10-13T05:44:17.529Z,12.47
2022-10-13T05:46:44.546Z,12.46
2022-10-13T05:49:11.188Z,12.28
2022-10-13T05:51:45.888Z,12.26
2022-10-13T05:54:15.178Z,12.48
2022-10-13T05:56:46.315Z,12.34
2022-10-13T05:59:16.485Z,12.50
2022-10-13T06:01:43.989Z,12.38
2022-10-13T06:04:17.463Z,12.44
2022-10-13T06:06:46.794Z,12.34
2022-10-13T06:09:13.415Z,12.49
2022-10-13T06:11:39.889Z,12.43
2022-10-13T06:14:06.496Z,12.51
2022-10-13T06:16:36.390Z,12.45
2022-10-13T06:19:04.650Z,12.45
2022-10-13T06:21:31.226Z,12.45
2022-10-13T06:23:57.837Z,12.44
2022-10-13T06:26:24.527Z,12.43
2022-10-13T06:28:54.467Z,12.27
2022-10-13T06:31:23.625Z,12.38
2022-10-13T06:33:50.106Z,12.34
2022-10-13T06:36:16.826Z,12.11
2022-10-13T06:38:43.334Z,12.13
2022-10-13T06:41:09.962Z,12.07
2022-10-13T06:43:40.503Z,12.08
2022-10-13T06:46:07.497Z,12.02
2022-10-13T06:48:34.816Z,12.12
2022-10-13T06:51:03.418Z,12.07
2022-10-13T06:53:30.285Z,12.01
2022-10-13T06:55:58.901Z,11.88
2022-10-13T06:58:25.746Z,11.56
2022-10-13T07:00:52.664Z,11.82
2022-10-13T07:03:19.344Z,11.78
2022-10-13T07:05:46.115Z,11.57
2022-10-13T07:08:13.792Z,11.64
2022-10-13T07:10:41.016Z,11.61
2022-10-13T07:13:07.956Z,11.70
2022-10-13T07:15:38.290Z,11.64
2022-10-13T07:18:06.800Z,11.63
2022-10-13T07:20:34.784Z,11.45
2022-10-13T07:23:01.596Z,11.51
2022-10-13T07:25:28.345Z,11.70
2022-10-13T07:27:54.897Z,11.65
2022-10-13T07:30:22.221Z,11.70
2022-10-13T07:32:49.031Z,11.89
2022-10-13T07:35:15.785Z,11.98
2022-10-13T07:37:42.427Z,12.05
2022-10-13T07:40:09.587Z,12.29
2022-10-13T07:42:36.159Z,12.38
2022-10-13T07:45:02.913Z,12.56
2022-10-13T07:47:29.503Z,12.64
2022-10-13T07:49:56.108Z,12.56
2022-10-13T07:52:23.178Z,12.79
2022-10-13T07:54:50.984Z,12.89
2022-10-13T07:57:18.022Z,12.98
2022-10-13T07:59:44.543Z,12.88
2022-10-13T08:02:11.283Z,13.05
2022-10-13T08:04:38.088Z,13.15
2022-10-13T08:07:05.999Z,13.21
2022-10-13T08:09:33.143Z,13.25
2022-10-13T08:12:01.953Z,13.18
2022-10-13T08:14:29.683Z,13.16
2022-10-13T08:16:57.679Z,13.24
2022-10-13T08:19:26.485Z,13.32
2022-10-13T08:21:58.196Z,13.40
2022-10-13T08:24:26.349Z,13.34
2022-10-13T08:26:53.432Z,13.44
2022-10-13T08:29:22.345Z,13.32
2022-10-13T08:34:16.471Z,13.32
2022-10-13T08:36:43.665Z,13.40
2022-10-13T08:39:10.906Z,13.52
2022-10-13T08:41:45.840Z,13.55
2022-10-13T08:47:51.706Z,14.08
2022-10-13T08:50:22.244Z,14.19
2022-10-13T08:52:59.889Z,14.42
2022-10-13T08:55:42.140Z,14.30
2022-10-13T08:58:26.947Z,14.45
2022-10-13T09:01:08.671Z,14.59
2022-10-13T09:03:52.441Z,14.63
2022-10-13T09:06:28.595Z,14.68
2022-10-13T09:09:10.942Z,14.73
2022-10-13T09:11:48.900Z,14.65
2022-10-13T09:14:36.493Z,15.00
2022-10-13T09:17:15.998Z,15.11
2022-10-13T09:19:42.941Z,15.22
2022-10-13T09:22:30.606Z,15.10
2022-10-13T09:25:15.463Z,15.28
2022-10-13T09:27:58.433Z,15.30
2022-10-13T09:30:25.906Z,15.32
2022-10-13T09:33:12.755Z,15.33
2022-10-13T09:35:42.347Z,15.36
2022-10-13T09:38:19.819Z,15.35
2022-10-13T09:41:09.683Z,15.32
2022-10-13T09:43:48.294Z,15.39
2022-10-13T09:46:58.460Z,15.39
2022-10-13T09:49:36.171Z,15.46
2022-10-13T09:52:07.716Z,15.37
2022-10-13T09:54:40.262Z,15.48
2022-10-13T09:57:14.285Z,15.44
2022-10-13T09:59:46.058Z,15.46
2022-10-13T10:02:37.582Z,15.47
2022-10-13T10:05:30.510Z,15.35
2022-10-13T10:08:06.793Z,15.31
2022-10-13T10:10:36.235Z,15.22
2022-10-13T10:13:03.783Z,15.24
2022-10-13T10:15:38.812Z,15.21
2022-10-13T10:18:33.450Z,15.16
2022-10-13T10:21:26.387Z,15.16
2022-10-13T10:24:01.700Z,15.16
2022-10-13T10:26:50.008Z,15.15
2022-10-13T10:29:24.341Z,15.16
2022-10-13T10:32:15.336Z,15.14
2022-10-13T10:35:01.628Z,15.09
2022-10-13T10:37:36.418Z,15.07
2022-10-13T10:40:21.701Z,15.08
2022-10-13T10:43:12.868Z,15.05
2022-10-13T10:45:39.959Z,15.03
2022-10-13T10:48:12.655Z,14.98
2022-10-13T10:50:39.963Z,14.97
2022-10-13T10:53:13.599Z,14.92
2022-10-13T10:55:55.146Z,14.81
2022-10-13T10:58:31.803Z,14.94
2022-10-13T11:01:08.229Z,14.91
2022-10-13T11:03:50.665Z,15.01
2022-10-13T11:06:17.102Z,15.05
2022-10-13T11:08:46.707Z,14.94
2022-10-13T11:11:25.113Z,15.07
2022-10-13T11:14:07.166Z,15.07
2022-10-13T11:16:58.348Z,15.05
2022-10-13T11:19:36.592Z,15.06
2022-10-13T11:22:03.243Z,15.10
2022-10-13T11:24:42.084Z,15.14
2022-10-13T11:27:09.173Z,15.21
2022-10-13T11:29:46.425Z,15.27
2022-10-13T11:32:42.844Z,15.32
2022-10-13T11:35:12.270Z,15.40
2022-10-13T11:38:06.922Z,15.44
2022-10-13T11:40:56.158Z,15.31
2022-10-13T11:43:28.716Z,15.51
2022-10-13T11:46:24.965Z,15.57
2022-10-13T11:49:27.669Z,15.45
2022-10-13T11:52:16.070Z,15.69
2022-10-13T11:54:42.536Z,15.77
2022-10-13T11:57:21.123Z,15.84
2022-10-13T11:59:49.517Z,15.72
2022-10-13T12:02:19.006Z,15.96
2022-10-13T12:05:17.947Z,15.97
2022-10-13T12:07:47.497Z,15.98
2022-10-13T12:10:23.595Z,16.06
2022-10-13T12:12:51.536Z,16.04
2022-10-13T12:15:44.728Z,16.38
2022-10-13T12:18:24.894Z,16.48
2022-10-13T12:20:53.347Z,16.56
2022-10-13T12:23:19.972Z,16.35
2022-10-13T12:25:49.089Z,16.65
2022-10-13T12:28:19.928Z,16.71
2022-10-13T12:30:58.935Z,16.58
2022-10-13T12:33:35.344Z,16.52
2022-10-13T12:36:11.949Z,16.59
2022-10-13T12:38:42.186Z,16.41
2022-10-13T12:41:10.621Z,16.58
2022-10-13T12:43:38.426Z,16.54
2022-10-13T12:46:07.312Z,16.61
2022-10-13T12:48:36.189Z,16.35
2022-10-13T12:51:17.174Z,16.58
2022-10-13T12:53:45.681Z,16.58
2022-10-13T12:56:33.285Z,16.61
2022-10-13T12:59:00.218Z,16.68
2022-10-13T13:01:26.999Z,16.77
2022-10-13T13:03:56.420Z,16.66
2022-10-13T13:06:35.960Z,16.85
2022-10-13T13:09:19.680Z,16.89
2022-10-13T13:11:46.760Z,16.86
2022-10-13T13:14:36.859Z,16.83
2022-10-13T13:17:45.355Z,16.68
2022-10-13T13:20:31.007Z,16.44
2022-10-13T13:22:58.202Z,16.44
2022-10-13T13:25:25.468Z,16.34
2022-10-13T13:27:52.964Z,16.31
2022-10-13T13:30:21.891Z,16.26
2022-10-13T13:32:48.615Z,16.09
2022-10-13T13:35:15.339Z,16.17
2022-10-13T13:37:47.995Z,16.16
2022-10-13T13:40:17.591Z,16.15
2022-10-13T13:42:44.172Z,15.93
2022-10-13T13:45:14.818Z,15.87
2022-10-13T13:47:41.529Z,15.93
2022-10-13T13:50:32.783Z,15.80
2022-10-13T13:53:00.841Z,15.84
2022-10-13T13:55:29.596Z,15.78
2022-10-13T13:57:57.072Z,15.75
2022-10-13T14:00:24.331Z,15.72
2022-10-13T14:02:50.817Z,15.45
2022-10-13T14:05:17.424Z,15.70
2022-10-13T14:07:43.963Z,15.55
2022-10-13T14:10:11.150Z,15.55
2022-10-13T14:12:38.010Z,15.63
2022-10-13T14:15:05.698Z,15.63
2022-10-13T14:17:32.208Z,15.58
2022-10-13T14:19:58.669Z,15.63
2022-10-13T14:22:25.561Z,15.64
2022-10-13T14:24:52.366Z,15.64
2022-10-13T14:27:18.930Z,15.71
2022-10-13T14:29:45.476Z,15.78
2022-10-13T14:32:12.215Z,15.68
2022-10-13T14:34:38.695Z,15.92
2022-10-13T14:37:05.373Z,16.04
2022-10-13T14:39:31.877Z,15.98
2022-10-13T14:41:58.334Z,16.14
2022-10-13T14:44:24.884Z,16.26
2022-10-13T14:46:51.371Z,16.38
2022-10-13T14:49:17.861Z,16.41
2022-10-13T14:51:44.387Z,16.56
2022-10-13T14:54:11.016Z,16.66
2022-10-13T14:56:37.695Z,16.77
2022-10-13T14:59:06.600Z,16.70
2022-10-13T15:01:33.836Z,16.93
2022-10-13T15:04:01.740Z,17.04
2022-10-13T15:06:28.635Z,16.99
2022-10-13T15:08:55.510Z,17.03
2022-10-13T15:11:22.530Z,16.81
2022-10-13T15:13:49.149Z,17.11
2022-10-13T15:16:18.722Z,17.20
2022-10-13T15:18:45.903Z,17.28
2022-10-13T15:21:12.815Z,17.32
2022-10-13T15:23:39.693Z,17.18
2022-10-13T15:26:07.008Z,16.93
2022-10-13T15:28:40.042Z,16.95
2022-10-13T15:31:07.190Z,16.90
2022-10-13T15:33:33.990Z,16.91
2022-10-13T15:36:00.572Z,16.75
2022-10-13T15:38:27.399Z,16.89
2022-10-13T15:40:59.190Z,16.81
2022-10-13T15:43:25.678Z,16.54
2022-10-13T15:45:59.638Z,16.73
2022-10-13T15:48:26.481Z,16.54
2022-10-13T15:50:53.045Z,16.62
2022-10-13T15:53:20.164Z,16.52
2022-10-13T15:55:47.555Z,16.35
2022-10-13T15:58:14.499Z,16.38
2022-10-13T16:00:41.682Z,16.30
2022-10-13T16:03:14.591Z,16.23
2022-10-13T16:05:42.668Z,16.20
2022-10-13T16:08:09.425Z,16.11
2022-10-13T16:10:39.179Z,15.90
2022-10-13T16:13:05.690Z,15.99
2022-10-13T16:15:32.181Z,15.89
2022-10-13T16:17:58.667Z,15.81
2022-10-13T16:20:25.254Z,15.77
2022-10-13T16:22:53.961Z,15.70
2022-10-13T16:25:20.506Z,15.63
2022-10-13T16:27:47.072Z,15.54
2022-10-13T16:30:13.698Z,15.47
2022-10-13T16:32:40.635Z,15.43
2022-10-13T16:35:07.685Z,15.35
2022-10-13T16:37:34.322Z,15.29
2022-10-13T16:40:00.893Z,15.17
2022-10-13T16:42:27.427Z,15.06
2022-10-13T16:44:53.928Z,15.07
2022-10-13T16:47:20.567Z,14.99
2022-10-13T16:49:47.425Z,14.94
2022-10-13T16:52:14.032Z,14.84
2022-10-13T16:54:40.508Z,14.77
2022-10-13T16:57:06.994Z,14.68
2022-10-13T16:59:33.514Z,14.64
2022-10-13T17:02:00.198Z,14.59
2022-10-13T17:04:26.733Z,14.42
2022-10-13T17:06:53.412Z,14.39
2022-10-13T17:09:19.893Z,14.34
2022-10-13T17:11:46.463Z,14.21
2022-10-13T17:14:12.922Z,14.05
2022-10-13T17:16:39.544Z,14.12
2022-10-13T17:19:06.791Z,14.05
2022-10-13T17:21:33.692Z,14.00
2022-10-13T17:24:00.209Z,13.93
2022-10-13T17:26:26.730Z,13.86
2022-10-13T17:28:53.979Z,13.81
2022-10-13T17:31:22.903Z,13.74
2022-10-13T17:33:50.771Z,13.69
2022-10-13T17:36:24.194Z,13.62
2022-10-13T17:38:51.667Z,13.57
2022-10-13T17:41:18.997Z,13.34
2022-10-13T17:43:45.650Z,13.44
2022-10-13T17:46:35.786Z,13.37
2022-10-13T17:49:02.059Z,13.33
2022-10-13T17:51:28.743Z,13.26
2022-10-13T17:53:55.567Z,13.21
2022-10-13T17:56:25.683Z,13.18
2022-10-13T17:58:52.587Z,13.12
2022-10-13T18:01:21.737Z,13.08
2022-10-13T18:03:56.822Z,13.01
2022-10-13T18:06:23.762Z,12.97
2022-10-13T18:08:50.865Z,12.81
2022-10-13T18:11:19.740Z,12.88
2022-10-13T18:13:46.984Z,12.79
2022-10-13T18:16:22.167Z,12.80
2022-10-13T18:18:50.358Z,12.77
2022-10-13T18:21:19.264Z,12.70
2022-10-13T18:23:45.982Z,12.68
2022-10-13T18:26:15.309Z,12.64
2022-10-13T18:28:45.713Z,12.60
2022-10-13T18:31:18.128Z,12.55
2022-10-13T18:33:45.856Z,12.54
2022-10-13T18:36:20.782Z,12.48
2022-10-13T18:38:47.748Z,12.42
2022-10-13T18:41:16.095Z,12.38
2022-10-13T18:43:42.713Z,12.39
2022-10-13T18:46:09.300Z,12.07
2022-10-13T18:48:35.779Z,12.30
2022-10-13T18:51:04.301Z,12.27
2022-10-13T18:53:30.851Z,12.20
2022-10-13T18:56:03.161Z,12.02
2022-10-13T18:58:30.963Z,12.13
2022-10-13T19:01:00.457Z,12.13
2022-10-13T19:03:27.048Z,12.06
2022-10-13T19:05:53.724Z,12.06
2022-10-13T19:08:20.274Z,12.02
2022-10-13T19:10:46.815Z,11.98
2022-10-13T19:13:13.346Z,11.98
2022-10-13T19:15:40.333Z,11.93
2022-10-13T19:18:06.817Z,11.89
2022-10-13T19:20:33.353Z,11.71
2022-10-13T19:22:59.847Z,11.86
2022-10-13T19:25:26.529Z,11.73
2022-10-13T19:27:53.576Z,11.83
2022-10-13T19:30:25.071Z,11.62
2022-10-13T19:32:51.651Z,11.49
2022-10-13T19:35:18.238Z,11.58
2022-10-13T19:37:44.708Z,11.74
2022-10-13T19:40:11.179Z,11.73
2022-10-13T19:42:37.651Z,11.50
2022-10-13T19:45:05.706Z,11.65
2022-10-13T19:47:32.247Z,11.39
2022-10-13T19:49:58.685Z,11.58
2022-10-13T19:52:25.165Z,11.49
2022-10-13T19:54:51.691Z,11.52
2022-10-13T19:57:18.666Z,11.56
2022-10-13T19:59:47.715Z,11.50
2022-10-13T20:02:14.671Z,11.49
2022-10-13T20:04:41.243Z,11.35
2022-10-13T20:07:07.748Z,11.32
2022-10-13T20:09:34.261Z,11.46
2022-10-13T20:12:00.730Z,11.40
2022-10-13T20:14:27.176Z,11.26
2022-10-13T20:16:56.433Z,11.36
2022-10-13T20:19:22.943Z,11.34
2022-10-13T20:21:52.474Z,11.31
2022-10-13T20:24:21.523Z,11.28
2022-10-13T20:26:48.015Z,11.26
2022-10-13T20:29:15.059Z,11.01
2022-10-13T20:31:42.219Z,11.19
2022-10-13T20:34:10.376Z,11.00
2022-10-13T20:36:38.978Z,11.14
2022-10-13T20:39:06.417Z,11.11
2022-10-13T20:41:33.286Z,11.10
2022-10-13T20:44:01.358Z,11.09
2022-10-13T20:46:27.906Z,11.05
2022-10-13T20:49:11.907Z,11.03
2022-10-13T20:51:39.822Z,10.93
2022-10-13T20:54:06.364Z,10.83
2022-10-13T20:56:33.344Z,10.92
2022-10-13T20:59:05.222Z,10.87
2022-10-13T21:01:32.546Z,10.89
2022-10-13T21:03:59.018Z,10.83
2022-10-13T21:06:28.489Z,10.75
2022-10-13T21:09:01.259Z,10.48
2022-10-13T21:11:32.946Z,10.61
2022-10-13T21:14:07.090Z,10.46
2022-10-13T21:16:37.949Z,10.66
2022-10-13T21:19:08.280Z,10.59
2022-10-13T21:21:36.518Z,10.35
2022-10-13T21:24:07.667Z,10.32
2022-10-13T21:26:43.033Z,9.86
2022-10-13T21:29:10.004Z,9.98
2022-10-13T21:31:37.609Z,10.05
2022-10-13T21:34:04.283Z,10.43
2022-10-13T21:36:32.426Z,10.40
2022-10-13T21:39:01.314Z,10.35
2022-10-13T21:41:28.373Z,10.28
2022-10-13T21:43:55.659Z,10.32
2022-10-13T21:46:25.541Z,10.21
2022-10-13T21:48:57.001Z,10.23
2022-10-13T21:51:26.531Z,10.24
2022-10-13T21:53:55.918Z,10.22
2022-10-13T21:56:24.142Z,10.22
2022-10-13T21:58:50.718Z,10.20
2022-10-13T22:01:18.611Z,10.04
2022-10-13T22:03:49.506Z,10.19
2022-10-13T22:06:19.387Z,10.17
2022-10-13T22:08:48.551Z,10.20
2022-10-13T22:11:15.668Z,10.19
2022-10-13T22:13:42.175Z,10.15
2022-10-13T22:16:12.087Z,10.18
2022-10-13T22:18:38.561Z,10.14
2022-10-13T22:21:07.744Z,10.13
2022-10-13T22:23:34.611Z,10.15
2022-10-13T22:26:01.109Z,10.14
2022-10-13T22:28:28.029Z,10.16
2022-10-13T22:30:54.613Z,10.17
2022-10-13T22:33:21.288Z,10.06
2022-10-13T22:35:47.921Z,10.08
2022-10-13T22:38:14.782Z,10.12
2022-10-13T22:40:44.159Z,10.14
2022-10-13T22:43:10.655Z,10.17
2022-10-13T22:45:37.212Z,10.15
2022-10-13T22:48:04.245Z,10.11
2022-10-13T22:50:30.878Z,10.18
2022-10-13T22:52:57.454Z,10.14
2022-10-13T22:55:24.053Z,9.99
2022-10-13T22:57:50.592Z,10.17
2022-10-13T23:00:17.235Z,10.13
2022-10-13T23:02:44.019Z,10.14
2022-10-13T23:05:11.051Z,10.08
2022-10-13T23:07:40.340Z,10.15
2022-10-13T23:10:10.530Z,10.12
2022-10-13T23:12:36.988Z,10.15
2022-10-13T23:15:06.772Z,10.15
2022-10-13T23:17:36.945Z,10.00
2022-10-13T23:20:04.635Z,10.09
2022-10-13T23:22:31.310Z,10.10
2022-10-13T23:24:57.872Z,10.16
2022-10-13T23:27:24.593Z,9.89
2022-10-13T23:29:51.153Z,10.01
2022-10-13T23:32:22.439Z,10.13
2022-10-13T23:45:50.403Z,9.99
2022-10-13T23:48:16.870Z,10.15
2022-10-13T23:50:43.378Z,10.15
2022-10-13T23:53:09.866Z,10.14
2022-10-13T23:55:40.103Z,10.15
2022-10-13T23:58:08.359Z,10.17
